createdAt,value
2018-05-28T00:02:14.583Z,12.20
2018-05-28T00:04:42.231Z,13.17
2018-05-28T00:07:09.851Z,10.50
2018-05-28T00:09:37.498Z,11.40
2018-05-28T00:12:05.184Z,10.37
2018-05-28T00:14:32.847Z,11.53
2018-05-28T00:17:00.472Z,11.17
2018-05-28T00:19:28.125Z,12.50
2018-05-28T00:21:55.742Z,12.47
2018-05-28T00:24:23.382Z,11.90
2018-05-28T00:26:51.003Z,12.03
2018-05-28T00:29:18.647Z,13.03
2018-05-28T00:31:46.267Z,12.60
2018-05-28T00:34:13.936Z,12.33
2018-05-28T00:36:41.587Z,13.50
2018-05-28T00:39:09.258Z,12.77
2018-05-28T00:41:36.912Z,13.47
2018-05-28T00:44:04.592Z,12.70
2018-05-28T00:46:32.212Z,12.77
2018-05-28T00:48:59.859Z,13.53
2018-05-28T00:51:27.479Z,14.50
2018-05-28T00:53:55.124Z,14.17
2018-05-28T00:56:22.795Z,14.00
2018-05-28T00:58:50.442Z,13.80
2018-05-28T01:01:18.079Z,13.40
2018-05-28T01:03:45.739Z,14.53
2018-05-28T01:06:13.354Z,15.20
2018-05-28T01:08:40.975Z,14.37
2018-05-28T01:11:08.611Z,15.70
2018-05-28T01:13:36.235Z,14.60
2018-05-28T01:16:03.879Z,17.37
2018-05-28T01:18:31.551Z,14.87
2018-05-28T01:20:59.216Z,15.13
2018-05-28T01:23:26.865Z,16.60
2018-05-28T01:25:54.506Z,15.17
2018-05-28T01:28:22.135Z,17.80
2018-05-28T01:30:49.781Z,17.23
2018-05-28T01:33:17.403Z,16.40
2018-05-28T01:35:45.087Z,16.20
2018-05-28T01:38:12.747Z,17.83
2018-05-28T01:40:40.397Z,18.13
2018-05-28T01:43:08.015Z,17.87
2018-05-28T01:45:35.660Z,17.90
2018-05-28T01:48:03.297Z,18.50
2018-05-28T01:50:30.965Z,18.13
2018-05-28T01:52:58.628Z,18.10
2018-05-28T01:55:26.273Z,17.43
2018-05-28T01:57:53.887Z,18.97
2018-05-28T02:00:21.532Z,20.13
2018-05-28T02:02:49.151Z,19.27
2018-05-28T02:05:16.827Z,19.93
2018-05-28T02:07:44.436Z,19.03
2018-05-28T02:10:12.075Z,17.93
2018-05-28T02:12:39.691Z,18.90
2018-05-28T02:15:07.374Z,18.60
2018-05-28T02:17:34.993Z,18.53
2018-05-28T02:20:02.648Z,18.23
2018-05-28T02:22:30.267Z,19.87
2018-05-28T02:24:57.882Z,20.60
2018-05-28T02:27:25.522Z,19.50
2018-05-28T02:29:53.143Z,20.20
2018-05-28T02:32:20.778Z,20.67
2018-05-28T02:34:48.446Z,19.40
2018-05-28T02:37:16.138Z,20.30
2018-05-28T02:39:43.755Z,22.10
2018-05-28T02:42:11.390Z,21.70
2018-05-28T02:44:39.004Z,21.33
2018-05-28T02:47:06.693Z,23.90
2018-05-28T02:49:34.309Z,23.23
2018-05-28T02:52:01.951Z,21.83
2018-05-28T02:54:29.563Z,21.87
2018-05-28T02:56:57.208Z,22.43
2018-05-28T02:59:24.826Z,21.60
2018-05-28T03:01:52.474Z,20.70
2018-05-28T03:04:20.110Z,22.30
2018-05-28T03:06:47.755Z,22.23
2018-05-28T03:09:15.367Z,23.57
2018-05-28T03:11:43.095Z,22.30
2018-05-28T03:14:11.267Z,23.23
2018-05-28T03:16:38.929Z,25.33
2018-05-28T03:19:06.604Z,23.27
2018-05-28T03:21:34.237Z,23.07
2018-05-28T03:24:01.922Z,24.70
2018-05-28T03:26:29.558Z,24.63
2018-05-28T03:28:57.241Z,24.83
2018-05-28T03:31:24.912Z,24.43
2018-05-28T03:33:52.527Z,23.23
2018-05-28T03:36:20.191Z,23.80
2018-05-28T03:38:47.822Z,25.00
2018-05-28T03:41:15.435Z,25.73
2018-05-28T03:43:43.114Z,26.73
2018-05-28T03:46:10.722Z,29.13
2018-05-28T03:48:38.357Z,29.10
2018-05-28T03:51:06.002Z,28.57
2018-05-28T03:53:33.667Z,29.87
2018-05-28T03:56:01.322Z,27.37
2018-05-28T03:58:28.960Z,27.60
2018-05-28T04:01:09.863Z,25.67
2018-05-28T04:03:49.200Z,26.97
2018-05-28T04:06:16.806Z,26.07
2018-05-28T04:08:44.447Z,26.10
2018-05-28T04:11:12.063Z,24.80
2018-05-28T04:13:39.754Z,25.80
2018-05-28T04:16:07.366Z,23.33
2018-05-28T04:18:35.002Z,22.83
2018-05-28T04:21:02.614Z,24.47
2018-05-28T04:23:30.251Z,24.23
2018-05-28T04:25:57.862Z,25.60
2018-05-28T04:28:25.521Z,23.77
2018-05-28T04:30:53.170Z,24.90
2018-05-28T04:33:20.801Z,24.53
2018-05-28T04:35:48.419Z,25.77
2018-05-28T04:38:16.268Z,22.17
2018-05-28T04:40:43.893Z,24.03
2018-05-28T04:43:11.546Z,25.17
2018-05-28T04:45:40.210Z,24.83
2018-05-28T04:48:07.875Z,24.60
2018-05-28T04:50:35.483Z,24.20
2018-05-28T04:53:03.159Z,24.57
2018-05-28T04:55:30.803Z,24.57
2018-05-28T04:57:58.418Z,25.73
2018-05-28T05:00:26.055Z,25.53
2018-05-28T05:02:53.694Z,24.30
2018-05-28T05:05:21.336Z,24.40
2018-05-28T05:07:48.951Z,26.00
2018-05-28T05:10:16.719Z,24.23
2018-05-28T05:12:44.342Z,25.30
2018-05-28T05:15:11.984Z,24.30
2018-05-28T05:17:39.594Z,24.43
2018-05-28T05:20:07.250Z,24.37
2018-05-28T05:22:34.903Z,25.03
2018-05-28T05:25:02.594Z,23.37
2018-05-28T05:27:30.951Z,25.13
2018-05-28T05:29:58.583Z,25.23
2018-05-28T05:32:26.203Z,25.33
2018-05-28T05:34:53.838Z,25.97
2018-05-28T05:37:21.451Z,25.40
2018-05-28T05:39:49.095Z,26.10
2018-05-28T05:42:16.787Z,22.13
2018-05-28T05:44:44.481Z,25.37
2018-05-28T05:47:12.153Z,25.67
2018-05-28T05:49:39.794Z,25.87
2018-05-28T05:52:07.411Z,24.03
2018-05-28T05:54:35.138Z,25.37
2018-05-28T05:57:02.756Z,24.00
2018-05-28T05:59:30.371Z,22.30
2018-05-28T06:01:58.039Z,22.30
2018-05-28T06:04:25.664Z,22.90
2018-05-28T06:06:53.310Z,23.57
2018-05-28T06:09:20.925Z,26.20
2018-05-28T06:11:48.563Z,23.43
2018-05-28T06:14:16.174Z,24.37
2018-05-28T06:16:43.811Z,24.03
2018-05-28T06:19:11.446Z,22.80
2018-05-28T06:21:39.078Z,22.60
2018-05-28T06:24:06.690Z,22.80
2018-05-28T06:26:34.332Z,22.17
2018-05-28T06:29:01.951Z,23.23
2018-05-28T06:31:29.592Z,22.60
2018-05-28T06:33:57.215Z,23.60
2018-05-28T06:36:24.886Z,22.50
2018-05-28T06:38:52.548Z,23.70
2018-05-28T06:41:20.207Z,22.53
2018-05-28T06:43:47.830Z,22.47
2018-05-28T06:46:15.468Z,21.53
2018-05-28T06:48:43.082Z,24.53
2018-05-28T06:51:10.759Z,21.30
2018-05-28T06:53:38.369Z,22.80
2018-05-28T06:56:06.011Z,20.77
2018-05-28T06:58:33.645Z,22.23
2018-05-28T07:01:01.307Z,21.07
2018-05-28T07:03:28.919Z,21.30
2018-05-28T07:05:56.575Z,20.40
2018-05-28T07:08:24.182Z,19.97
2018-05-28T07:10:51.803Z,20.80
2018-05-28T07:13:19.442Z,20.90
2018-05-28T07:15:47.066Z,18.20
2018-05-28T07:18:14.738Z,19.43
2018-05-28T07:20:42.403Z,21.30
2018-05-28T07:23:10.048Z,19.47
2018-05-28T07:25:37.722Z,20.40
2018-05-28T07:28:05.386Z,18.57
2018-05-28T07:30:32.997Z,22.10
2018-05-28T07:33:00.710Z,21.47
2018-05-28T07:35:28.377Z,20.70
2018-05-28T07:37:56.027Z,19.97
2018-05-28T07:40:23.705Z,20.30
2018-05-28T07:42:51.359Z,22.47
2018-05-28T07:45:19.003Z,20.30
2018-05-28T07:47:46.687Z,19.67
2018-05-28T07:50:14.303Z,20.40
2018-05-28T07:52:41.946Z,21.23
2018-05-28T07:55:09.566Z,20.73
2018-05-28T07:57:37.210Z,20.10
2018-05-28T08:00:04.896Z,19.50
2018-05-28T08:02:32.559Z,20.57
2018-05-28T08:05:00.179Z,20.00
2018-05-28T08:07:27.819Z,19.03
2018-05-28T08:09:55.441Z,18.50
2018-05-28T08:12:23.102Z,17.07
2018-05-28T08:14:50.710Z,20.90
2018-05-28T08:17:18.346Z,18.90
2018-05-28T08:19:45.986Z,18.63
2018-05-28T08:22:13.611Z,18.90
2018-05-28T08:24:41.314Z,16.57
2018-05-28T08:27:08.926Z,17.80
2018-05-28T08:29:36.557Z,17.73
2018-05-28T08:32:04.198Z,18.27
2018-05-28T08:34:31.853Z,16.27
2018-05-28T08:36:59.467Z,18.43
2018-05-28T08:39:27.187Z,16.40
2018-05-28T08:41:54.886Z,18.80
2018-05-28T08:44:22.617Z,16.10
2018-05-28T08:46:50.274Z,18.30
2018-05-28T08:49:17.935Z,17.90
2018-05-28T08:51:45.541Z,15.97
2018-05-28T08:54:13.178Z,17.57
2018-05-28T08:56:40.790Z,16.27
2018-05-28T08:59:08.478Z,16.83
2018-05-28T09:01:36.094Z,16.33
2018-05-28T09:04:03.811Z,16.00
2018-05-28T09:06:31.465Z,16.97
2018-05-28T09:08:59.098Z,18.07
2018-05-28T09:11:26.998Z,16.23
2018-05-28T09:13:54.562Z,16.83
2018-05-28T09:16:22.179Z,15.77
2018-05-28T09:18:49.890Z,16.43
2018-05-28T09:21:17.511Z,14.83
2018-05-28T09:23:45.211Z,14.47
2018-05-28T09:26:12.832Z,14.20
2018-05-28T09:28:40.538Z,15.50
2018-05-28T09:31:08.151Z,14.40
2018-05-28T09:33:35.803Z,14.60
2018-05-28T09:36:04.463Z,14.13
2018-05-28T09:38:32.074Z,14.00
2018-05-28T09:40:59.719Z,14.13
2018-05-28T09:43:27.339Z,14.70
2018-05-28T09:45:54.974Z,14.87
2018-05-28T09:48:22.659Z,12.93
2018-05-28T09:50:50.295Z,11.43
2018-05-28T09:53:17.910Z,13.33
2018-05-28T09:55:45.547Z,12.07
2018-05-28T09:58:13.159Z,11.80
2018-05-28T10:00:40.790Z,11.70
2018-05-28T10:03:08.402Z,13.80
2018-05-28T10:05:36.050Z,12.70
2018-05-28T10:08:03.663Z,12.20
2018-05-28T10:10:31.295Z,11.50
2018-05-28T10:12:58.985Z,12.27
2018-05-28T10:15:26.635Z,12.63
2018-05-28T10:17:54.294Z,12.63
2018-05-28T10:20:21.930Z,12.03
2018-05-28T10:22:49.649Z,11.37
2018-05-28T10:25:17.389Z,11.60
2018-05-28T10:27:45.009Z,10.93
2018-05-28T10:30:12.647Z,11.80
2018-05-28T10:32:40.365Z,10.60
2018-05-28T10:35:08.454Z,11.20
2018-05-28T10:37:36.066Z,10.93
2018-05-28T10:40:03.771Z,11.53
2018-05-28T10:42:31.411Z,12.10
2018-05-28T10:44:59.085Z,12.43
2018-05-28T10:47:26.727Z,11.40
2018-05-28T10:49:54.357Z,11.17
2018-05-28T10:52:22.102Z,13.20
2018-05-28T10:54:49.741Z,11.87
2018-05-28T10:57:17.407Z,13.80
2018-05-28T10:59:45.017Z,12.33
2018-05-28T11:02:12.653Z,12.10
2018-05-28T11:04:40.267Z,12.03
2018-05-28T11:07:07.906Z,13.17
2018-05-28T11:09:35.522Z,12.20
2018-05-28T11:12:03.280Z,12.17
2018-05-28T11:14:30.932Z,11.90
2018-05-28T11:16:58.605Z,12.70
2018-05-28T11:19:26.267Z,12.63
2018-05-28T11:21:53.909Z,10.97
2018-05-28T11:24:21.517Z,11.30
2018-05-28T11:26:49.158Z,11.10
2018-05-28T11:29:16.770Z,11.43
2018-05-28T11:31:44.492Z,11.17
2018-05-28T11:34:12.106Z,10.83
2018-05-28T11:36:39.798Z,10.10
2018-05-28T11:39:07.422Z,10.80
2018-05-28T11:41:35.091Z,11.17
2018-05-28T11:44:02.720Z,10.43
2018-05-28T11:46:30.403Z,10.47
2018-05-28T11:48:58.003Z,11.07
2018-05-28T11:51:25.755Z,10.77
2018-05-28T11:53:53.382Z,10.23
2018-05-28T11:56:21.094Z,10.30
2018-05-28T11:58:48.758Z,10.37
2018-05-28T12:01:16.416Z,11.77
2018-05-28T12:03:44.087Z,10.77
2018-05-28T12:06:11.706Z,10.23
2018-05-28T12:08:39.342Z,11.00
2018-05-28T12:11:07.070Z,10.00
2018-05-28T12:13:34.730Z,11.47
2018-05-28T12:16:02.424Z,10.30
2018-05-28T12:18:30.011Z,10.30
2018-05-28T12:20:57.723Z,9.67
2018-05-28T12:23:25.353Z,10.60
2018-05-28T12:25:52.971Z,10.90
2018-05-28T12:28:20.607Z,10.80
2018-05-28T12:30:48.265Z,10.67
2018-05-28T12:33:15.927Z,9.83
2018-05-28T12:35:43.543Z,10.50
2018-05-28T12:38:11.178Z,9.53
2018-05-28T12:40:38.813Z,9.20
2018-05-28T12:43:06.442Z,9.90
2018-05-28T12:45:34.138Z,9.70
2018-05-28T12:48:01.766Z,9.10
2018-05-28T12:50:29.398Z,9.90
2018-05-28T12:52:57.126Z,8.67
2018-05-28T12:55:24.735Z,10.40
2018-05-28T12:57:52.374Z,8.97
2018-05-28T13:00:19.987Z,9.73
2018-05-28T13:02:47.614Z,9.17
2018-05-28T13:05:15.227Z,8.83
2018-05-28T13:07:42.993Z,8.87
2018-05-28T13:10:10.598Z,7.87
2018-05-28T13:12:38.203Z,8.97
2018-05-28T13:15:05.886Z,9.63
2018-05-28T13:17:33.488Z,8.60
2018-05-28T13:20:01.115Z,8.37
2018-05-28T13:22:28.723Z,9.23
2018-05-28T13:24:56.355Z,9.30
2018-05-28T13:27:23.957Z,9.23
2018-05-28T13:29:51.594Z,8.77
2018-05-28T13:32:19.210Z,8.40
2018-05-28T13:34:46.847Z,9.30
2018-05-28T13:37:14.469Z,8.77
2018-05-28T13:39:42.117Z,9.10
2018-05-28T13:42:09.760Z,8.50
2018-05-28T13:44:37.418Z,8.77
2018-05-28T13:47:05.094Z,8.60
2018-05-28T13:49:32.736Z,8.63
2018-05-28T13:52:00.345Z,8.43
2018-05-28T13:54:27.982Z,8.70
2018-05-28T13:56:55.630Z,8.87
2018-05-28T13:59:23.263Z,8.93
2018-05-28T14:01:50.898Z,8.13
2018-05-28T14:04:18.526Z,8.60
2018-05-28T14:06:46.133Z,8.60
2018-05-28T14:09:13.839Z,8.93
2018-05-28T14:11:41.597Z,9.23
2018-05-28T14:14:09.268Z,8.73
2018-05-28T14:16:36.890Z,9.10
2018-05-28T14:19:04.524Z,8.60
2018-05-28T14:21:32.146Z,8.77
2018-05-28T14:23:59.810Z,8.80
2018-05-28T14:26:27.416Z,8.70
2018-05-28T14:28:55.138Z,8.40
2018-05-28T14:31:23.066Z,8.57
2018-05-28T14:33:50.426Z,8.90
2018-05-28T14:36:18.122Z,8.60
2018-05-28T14:38:45.883Z,8.43
2018-05-28T14:41:13.552Z,8.20
2018-05-28T14:43:41.199Z,8.27
2018-05-28T14:46:08.841Z,8.60
2018-05-28T14:48:36.451Z,8.30
2018-05-28T14:51:04.163Z,8.17
2018-05-28T14:53:31.722Z,7.83
2018-05-28T14:55:59.423Z,8.00
2018-05-28T14:58:27.042Z,9.57
2018-05-28T15:00:54.679Z,9.10
2018-05-28T15:03:22.286Z,7.70
2018-05-28T15:05:49.924Z,7.90
2018-05-28T15:08:17.592Z,8.27
2018-05-28T15:10:45.235Z,8.90
2018-05-28T15:13:12.959Z,8.40
2018-05-28T15:15:40.618Z,8.63
2018-05-28T15:18:08.222Z,8.40
2018-05-28T15:20:35.908Z,9.33
2018-05-28T15:23:03.495Z,9.07
2018-05-28T15:25:31.159Z,9.00
2018-05-28T15:27:58.926Z,8.73
2018-05-28T15:30:26.595Z,8.30
2018-05-28T15:32:54.206Z,8.40
2018-05-28T15:35:21.839Z,8.60
2018-05-28T15:37:49.475Z,8.40
2018-05-28T15:40:17.243Z,8.27
2018-05-28T15:42:45.780Z,8.77
2018-05-28T15:45:13.387Z,8.30
2018-05-28T15:47:41.026Z,8.70
2018-05-28T15:50:08.635Z,8.40
2018-05-28T15:52:36.366Z,7.60
2018-05-28T15:55:04.035Z,8.37
2018-05-28T15:57:31.694Z,7.23
2018-05-28T15:59:59.302Z,8.03
2018-05-28T16:02:26.926Z,7.57
2018-05-28T16:04:54.539Z,7.23
2018-05-28T16:07:22.165Z,8.03
2018-05-28T16:09:49.778Z,7.70
2018-05-28T16:12:17.470Z,8.83
2018-05-28T16:14:45.071Z,6.93
2018-05-28T16:17:12.790Z,7.33
2018-05-28T16:19:40.450Z,7.50
2018-05-28T16:22:08.111Z,7.77
2018-05-28T16:24:35.715Z,7.80
2018-05-28T16:27:03.439Z,8.63
2018-05-28T16:29:31.299Z,7.17
2018-05-28T16:31:58.945Z,7.67
2018-05-28T16:34:26.626Z,7.60
2018-05-28T16:36:54.286Z,7.07
2018-05-28T16:39:21.960Z,7.37
2018-05-28T16:41:49.590Z,7.10
2018-05-28T16:44:17.203Z,7.23
2018-05-28T16:46:44.936Z,7.40
2018-05-28T16:49:12.601Z,7.50
2018-05-28T16:51:40.231Z,7.07
2018-05-28T16:54:07.926Z,6.37
2018-05-28T16:56:35.575Z,6.73
2018-05-28T16:59:03.230Z,7.07
2018-05-28T17:01:30.911Z,6.03
2018-05-28T17:03:58.543Z,6.73
2018-05-28T17:06:26.150Z,6.73
2018-05-28T17:08:53.784Z,6.20
2018-05-28T17:11:21.395Z,7.00
2018-05-28T17:13:49.023Z,6.97
2018-05-28T17:16:16.630Z,5.80
2018-05-28T17:18:44.343Z,6.00
2018-05-28T17:21:11.946Z,6.50
2018-05-28T17:23:39.667Z,5.77
2018-05-28T17:26:07.271Z,6.13
2018-05-28T17:28:34.989Z,5.90
2018-05-28T17:31:02.598Z,6.10
2018-05-28T17:33:30.230Z,5.90
2018-05-28T17:35:57.842Z,7.33
2018-05-28T17:38:25.474Z,5.73
2018-05-28T17:40:53.197Z,5.50
2018-05-28T17:43:20.835Z,6.30
2018-05-28T17:45:48.451Z,6.57
2018-05-28T17:48:16.079Z,6.83
2018-05-28T17:50:43.685Z,6.80
2018-05-28T17:53:11.316Z,6.90
2018-05-28T17:55:38.922Z,7.40
2018-05-28T17:58:06.631Z,7.60
2018-05-28T18:00:36.054Z,7.93
2018-05-28T18:03:03.694Z,8.63
2018-05-28T18:05:31.356Z,8.23
2018-05-28T18:07:58.985Z,9.00
2018-05-28T18:10:26.679Z,7.83
2018-05-28T18:12:54.347Z,8.33
2018-05-28T18:15:21.954Z,8.37
2018-05-28T18:17:49.574Z,7.77
2018-05-28T18:20:17.214Z,8.33
2018-05-28T18:22:44.890Z,7.97
2018-05-28T18:25:12.554Z,8.77
2018-05-28T18:27:40.160Z,8.20
2018-05-28T18:30:07.807Z,14.30
2018-05-28T18:32:35.415Z,8.10
2018-05-28T18:35:03.097Z,9.20
2018-05-28T18:37:30.714Z,8.70
2018-05-28T18:39:58.346Z,8.63
2018-05-28T18:42:25.991Z,9.23
2018-05-28T18:44:53.654Z,12.57
2018-05-28T18:47:21.262Z,9.77
2018-05-28T18:49:48.900Z,9.50
2018-05-28T18:52:16.514Z,9.50
2018-05-28T18:54:44.146Z,9.23
2018-05-28T18:57:11.755Z,9.03
2018-05-28T18:59:39.382Z,9.60
2018-05-28T19:02:07.029Z,8.73
2018-05-28T19:04:34.666Z,9.00
2018-05-28T19:07:02.282Z,9.60
2018-05-28T19:09:29.918Z,9.90
2018-05-28T19:11:57.526Z,9.60
2018-05-28T19:14:25.166Z,10.30
2018-05-28T19:16:52.775Z,9.13
2018-05-28T19:19:20.407Z,9.53
2018-05-28T19:21:48.019Z,9.27
2018-05-28T19:24:15.651Z,8.90
2018-05-28T19:26:43.254Z,8.20
2018-05-28T19:29:10.896Z,10.20
2018-05-28T19:31:38.550Z,9.67
2018-05-28T19:34:06.179Z,9.53
2018-05-28T19:36:33.833Z,8.30
2018-05-28T19:39:01.447Z,9.90
2018-05-28T19:41:29.086Z,9.70
2018-05-28T19:43:56.728Z,9.70
2018-05-28T19:46:24.358Z,9.20
2018-05-28T19:48:51.974Z,10.07
2018-05-28T19:51:19.662Z,10.17
2018-05-28T19:53:47.375Z,10.80
2018-05-28T19:56:15.002Z,9.53
2018-05-28T19:58:42.640Z,9.47
2018-05-28T20:01:10.294Z,10.07
2018-05-28T20:03:37.918Z,10.00
2018-05-28T20:06:05.926Z,9.87
2018-05-28T20:08:33.535Z,9.93
2018-05-28T20:11:01.217Z,10.63
2018-05-28T20:13:28.878Z,10.80
2018-05-28T20:15:56.510Z,10.43
2018-05-28T20:18:24.123Z,10.20
2018-05-28T20:20:51.734Z,10.50
2018-05-28T20:23:19.426Z,9.73
2018-05-28T20:25:47.122Z,11.13
2018-05-28T20:28:14.741Z,8.50
2018-05-28T20:30:42.427Z,11.17
2018-05-28T20:33:10.073Z,10.80
2018-05-28T20:35:37.734Z,11.57
2018-05-28T20:38:05.399Z,10.50
2018-05-28T20:40:33.016Z,11.10
2018-05-28T20:43:00.651Z,10.90
2018-05-28T20:45:28.294Z,11.30
2018-05-28T20:47:56.047Z,10.97
2018-05-28T20:50:23.658Z,11.93
2018-05-28T20:52:51.301Z,11.10
2018-05-28T20:55:18.916Z,11.60
2018-05-28T20:57:46.598Z,13.00
2018-05-28T21:00:14.213Z,12.20
2018-05-28T21:02:41.846Z,11.33
2018-05-28T21:05:09.471Z,11.63
2018-05-28T21:07:37.106Z,11.23
2018-05-28T21:10:04.726Z,11.43
2018-05-28T21:12:32.462Z,11.63
2018-05-28T21:15:00.073Z,12.00
2018-05-28T21:17:27.714Z,11.90
2018-05-28T21:19:55.371Z,12.43
2018-05-28T21:22:23.011Z,11.83
2018-05-28T21:24:50.666Z,12.83
2018-05-28T21:27:18.306Z,11.80
2018-05-28T21:29:45.920Z,13.07
2018-05-28T21:32:13.574Z,13.00
2018-05-28T21:34:41.190Z,12.67
2018-05-28T21:37:08.879Z,12.90
2018-05-28T21:39:36.540Z,12.60
2018-05-28T21:42:04.207Z,12.83
2018-05-28T21:44:31.867Z,11.87
2018-05-28T21:46:59.486Z,12.73
2018-05-28T21:49:27.190Z,12.50
2018-05-28T21:51:54.849Z,13.00
2018-05-28T21:54:22.482Z,12.57
2018-05-28T21:56:50.098Z,12.70
2018-05-28T21:59:17.846Z,13.53
2018-05-28T22:01:45.471Z,13.40
2018-05-28T22:04:13.118Z,15.20
2018-05-28T22:06:40.737Z,12.87
2018-05-28T22:09:08.375Z,15.00
2018-05-28T22:11:35.986Z,14.20
2018-05-28T22:14:03.632Z,13.97
2018-05-28T22:16:31.250Z,14.53
2018-05-28T22:18:58.887Z,13.37
2018-05-28T22:21:26.501Z,12.93
2018-05-28T22:23:54.140Z,13.27
2018-05-28T22:26:21.763Z,10.93
2018-05-28T22:28:49.405Z,13.50
2018-05-28T22:31:17.042Z,12.20
2018-05-28T22:33:44.683Z,13.03
2018-05-28T22:36:12.297Z,13.13
2018-05-28T22:38:39.926Z,12.27
2018-05-28T22:41:07.591Z,13.47
2018-05-28T22:43:35.250Z,14.00
2018-05-28T22:46:02.917Z,11.73
2018-05-28T22:48:30.538Z,14.30
2018-05-28T22:50:58.181Z,13.53
2018-05-28T22:53:25.798Z,13.90
2018-05-28T22:55:53.440Z,15.00
2018-05-28T22:58:21.055Z,13.23
2018-05-28T23:00:48.691Z,14.43
2018-05-28T23:03:16.306Z,14.00
2018-05-28T23:05:43.943Z,15.13
2018-05-28T23:08:11.567Z,14.33
2018-05-28T23:10:39.227Z,13.13
2018-05-28T23:13:06.886Z,14.50
2018-05-28T23:15:34.555Z,14.90
2018-05-28T23:18:02.170Z,13.23
2018-05-28T23:20:29.874Z,15.97
2018-05-28T23:22:57.538Z,14.30
2018-05-28T23:25:25.202Z,14.33
2018-05-28T23:27:52.811Z,14.13
2018-05-28T23:30:20.449Z,15.10
2018-05-28T23:32:48.078Z,15.13
2018-05-28T23:35:15.715Z,15.60
2018-05-28T23:37:43.330Z,14.87
2018-05-28T23:40:11.070Z,15.70
2018-05-28T23:42:38.686Z,15.07
2018-05-28T23:45:06.394Z,14.47
2018-05-28T23:47:34.566Z,15.00
2018-05-28T23:50:02.207Z,15.50
2018-05-28T23:52:29.834Z,17.20
2018-05-28T23:54:57.475Z,14.53
2018-05-28T23:57:25.118Z,17.03
2018-05-28T23:59:52.778Z,15.40
